Time;durP1;ratioP1;P1;durP2;ratioP2;P2;SDS_P1;SDS_P2;PMS_P1;PMS_P2;Temp;Humidity;BMP_temperature;BMP_pressure;BME280_temperature;BME280_humidity;BME280_pressure;Samples;Min_cycle;Max_cycle;Signal;HPM_P1;HPM_P2
2021/05/06 00:00:51;;;;;;;7.17;4.73;;;;;;;17.02;63.21;94337.88;5091991;28;20481;-75
2021/05/06 00:03:54;;;;;;;3.90;3.47;;;;;;;16.90;62.87;94344.66;5066035;28;20433;-76
2021/05/06 00:33:39;;;;;;;3.10;2.70;;;;;;;15.23;62.36;94397.34;4993566;28;20525;-76
2021/05/06 00:36:06;;;;;;;3.33;2.90;;;;;;;14.94;62.79;94412.94;4993594;28;20450;-75
2021/05/06 00:38:40;;;;;;;5.20;3.57;;;;;;;14.90;62.90;94412.47;4944815;28;20436;-75
2021/05/06 00:41:16;;;;;;;8.03;3.40;;;;;;;14.71;64.09;94413.66;4993047;28;20482;-75
2021/05/06 00:46:43;;;;;;;5.03;2.83;;;;;;;14.69;64.22;94409.53;5031985;28;21015;-76
2021/05/06 00:57:26;;;;;;;2.67;2.40;;;;;;;14.60;64.07;94421.91;5032565;28;20537;-75
2021/05/06 01:00:08;;;;;;;4.43;2.43;;;;;;;14.78;63.73;94430.50;5032232;28;20523;-76
2021/05/06 01:02:48;;;;;;;3.23;3.03;;;;;;;14.79;63.34;94426.88;5032237;28;20601;-75
2021/05/06 01:05:19;;;;;;;5.00;3.03;;;;;;;14.57;63.27;94425.72;4989090;28;20454;-75
2021/05/06 01:13:08;;;;;;;7.33;3.03;;;;;;;14.77;62.30;94431.50;4973044;28;20445;-75
2021/05/06 01:15:34;;;;;;;4.67;3.60;;;;;;;14.75;62.89;94428.19;4941333;28;20942;-75
2021/05/06 01:18:01;;;;;;;3.53;2.60;;;;;;;14.83;62.55;94428.16;4973182;28;20455;-76
2021/05/06 01:20:28;;;;;;;8.80;3.10;;;;;;;15.02;62.79;94440.19;4925046;28;20490;-75
2021/05/06 01:22:55;;;;;;;3.73;3.30;;;;;;;15.14;63.14;94451.25;4973030;28;20527;-75
2021/05/06 01:25:21;;;;;;;5.40;3.03;;;;;;;15.20;63.01;94437.34;4973212;28;20473;-76
2021/05/06 01:27:56;;;;;;;6.93;3.10;;;;;;;15.26;63.09;94438.47;4908957;28;20446;-76
2021/05/06 01:30:30;;;;;;;3.07;2.83;;;;;;;15.31;63.18;94444.91;4973038;28;20458;-75
2021/05/06 01:33:04;;;;;;;5.67;3.60;;;;;;;15.30;63.37;94450.34;4972689;28;20532;-75
2021/05/06 01:35:35;;;;;;;5.27;2.97;;;;;;;15.32;62.72;94449.19;5025030;28;20532;-76
2021/05/06 01:38:15;;;;;;;4.40;3.30;;;;;;;15.34;63.26;94447.22;5031700;28;20447;-75
2021/05/06 01:43:43;;;;;;;3.53;3.17;;;;;;;15.41;62.68;94455.31;4972743;28;20447;-75
2021/05/06 01:59:56;;;;;;;3.80;2.87;;;;;;;15.26;63.23;94468.38;4858802;29;20840;-75
2021/05/06 02:02:22;;;;;;;3.53;3.20;;;;;;;15.25;63.30;94473.84;4829153;29;20823;-75
2021/05/06 02:04:48;;;;;;;7.50;3.10;;;;;;;15.25;63.55;94474.66;4858675;29;20506;-76
2021/05/06 02:07:15;;;;;;;4.57;3.00;;;;;;;15.22;63.41;94468.88;4858812;29;20502;-75
2021/05/06 02:09:44;;;;;;;3.83;2.40;;;;;;;15.17;63.65;94472.03;4858712;29;20459;-75
2021/05/06 02:12:11;;;;;;;3.23;2.93;;;;;;;15.14;63.44;94472.38;4858938;29;20457;-75
2021/05/06 02:14:38;;;;;;;3.80;3.43;;;;;;;15.08;63.39;94478.34;4858869;29;20460;-76
2021/05/06 02:17:04;;;;;;;6.40;3.30;;;;;;;15.06;63.08;94480.34;4858566;29;20947;-75
2021/05/06 02:19:34;;;;;;;3.47;2.90;;;;;;;15.08;63.29;94479.16;4903044;29;20432;-76
2021/05/06 02:22:03;;;;;;;3.83;3.30;;;;;;;15.08;63.53;94479.16;4933718;29;20584;-75
2021/05/06 02:24:29;;;;;;;10.93;3.10;;;;;;;15.08;63.27;94479.16;4933603;29;20443;-75
2021/05/06 02:26:56;;;;;;;4.27;2.87;;;;;;;15.04;63.82;94477.84;4933558;29;20485;-75
2021/05/06 02:29:22;;;;;;;3.07;2.80;;;;;;;15.02;63.90;94476.34;4974077;28;20444;-76
2021/05/06 02:31:49;;;;;;;3.50;2.60;;;;;;;15.01;64.20;94479.97;5013504;28;20445;-75
2021/05/06 02:34:15;;;;;;;5.10;3.10;;;;;;;14.97;64.12;94482.13;5030830;28;20565;-75
2021/05/06 02:36:42;;;;;;;3.30;2.40;;;;;;;14.98;64.01;94477.69;5051056;28;20434;-75
2021/05/06 02:39:08;;;;;;;4.57;2.77;;;;;;;14.95;63.63;94480.66;5092936;28;20825;-75
2021/05/06 02:41:34;;;;;;;3.80;2.33;;;;;;;14.88;63.71;94483.13;5093058;28;20512;-75
2021/05/06 02:44:01;;;;;;;3.30;2.70;;;;;;;14.90;63.73;94482.97;5056775;28;20444;-75
2021/05/06 02:46:28;;;;;;;7.40;2.80;;;;;;;14.92;64.01;94486.28;5057154;28;20457;-75
2021/05/06 02:48:54;;;;;;;3.37;3.07;;;;;;;14.92;64.22;94483.63;5093356;28;20466;-75
2021/05/06 02:51:25;;;;;;;5.03;2.87;;;;;;;14.90;64.21;94475.88;5093058;28;20939;-75
2021/05/06 02:53:53;;;;;;;5.03;2.40;;;;;;;14.88;64.49;94489.25;5092677;28;20537;-75
2021/05/06 02:56:26;;;;;;;4.20;2.80;;;;;;;14.83;64.58;94488.09;5092715;28;20451;-75
2021/05/06 02:59:05;;;;;;;10.33;3.10;;;;;;;14.80;64.67;94496.38;5092766;28;20455;-75
2021/05/06 03:04:17;;;;;;;3.93;2.63;;;;;;;14.82;64.42;94494.38;5092565;28;20624;-75
2021/05/06 03:06:49;;;;;;;5.50;3.10;;;;;;;14.84;63.86;94495.88;5092392;28;20440;-76
2021/05/06 03:09:32;;;;;;;3.00;2.67;;;;;;;14.89;63.92;94498.00;5092839;28;20442;-75
2021/05/06 03:12:07;;;;;;;3.40;2.67;;;;;;;14.90;63.89;94491.72;5092389;28;20931;-75
2021/05/06 03:22:48;;;;;;;3.20;2.90;;;;;;;14.75;63.75;94510.06;5049850;28;20439;-74
2021/05/06 03:25:16;;;;;;;2.50;2.30;;;;;;;14.76;63.72;94513.53;5049878;28;20501;-75
2021/05/06 03:27:47;;;;;;;2.93;2.73;;;;;;;14.72;63.53;94505.09;5049808;28;20473;-75
2021/05/06 03:30:31;;;;;;;3.13;2.83;;;;;;;14.76;63.61;94517.00;5049856;28;20433;-75
2021/05/06 03:34:38;;;;;;;4.17;2.33;;;;;;;14.78;63.73;94519.47;5049681;28;20456;-75
2021/05/06 03:44:08;;;;;;;8.70;3.23;;;;;;;14.83;63.02;94539.13;4989525;28;20465;-76
2021/05/06 03:46:51;;;;;;;3.00;2.70;;;;;;;14.97;63.14;94544.72;4990424;28;20454;-75
2021/05/06 03:49:40;;;;;;;5.90;2.70;;;;;;;15.10;62.63;94551.19;4990303;28;20479;-75
2021/05/06 04:03:33;;;;;;;5.10;2.93;;;;;;;16.15;59.94;94572.28;5053432;28;20838;-76
2021/05/06 04:17:10;;;;;;;2.83;2.37;;;;;;;19.42;49.86;94588.31;4993869;28;20958;-76
2021/05/06 04:27:52;;;;;;;8.53;3.30;;;;;;;21.58;45.44;94610.13;4974399;28;20970;-77
2021/05/06 04:30:39;;;;;;;34.00;3.30;;;;;;;22.03;43.93;94608.47;4974462;28;20522;-76
2021/05/06 04:35:51;;;;;;;7.97;2.80;;;;;;;22.79;42.08;94610.56;4946799;28;20434;-77
2021/05/06 04:38:22;;;;;;;4.80;2.63;;;;;;;23.03;41.32;94611.75;4973714;28;20451;-76
2021/05/06 04:46:47;;;;;;;2.80;2.60;;;;;;;23.72;40.03;94614.44;4935650;29;20451;-77
2021/05/06 04:54:45;;;;;;;2.97;2.40;;;;;;;24.44;37.81;94636.31;4993486;28;20461;-77
2021/05/06 05:05:20;;;;;;;5.63;2.77;;;;;;;25.28;35.80;94646.31;5032300;28;20838;-76
2021/05/06 05:07:50;;;;;;;4.70;2.53;;;;;;;25.41;34.96;94648.00;4998642;28;20453;-76
2021/05/06 05:10:25;;;;;;;2.70;2.50;;;;;;;25.56;35.38;94653.78;5000602;28;20466;-76
2021/05/06 05:18:27;;;;;;;3.83;2.90;;;;;;;26.20;34.03;94651.41;5052889;28;21026;-77
2021/05/06 05:23:39;;;;;;;3.80;2.77;;;;;;;26.37;33.42;94652.38;5071362;28;20465;-76
2021/05/06 05:26:09;;;;;;;13.03;3.13;;;;;;;26.35;34.11;94649.13;5072038;28;20437;-76
2021/05/06 05:28:35;;;;;;;4.10;2.27;;;;;;;26.45;33.88;94654.72;5071654;28;20482;-77
2021/05/06 05:31:02;;;;;;;4.90;2.67;;;;;;;26.66;33.68;94655.19;5071883;28;20444;-77
2021/05/06 05:33:31;;;;;;;3.90;2.70;;;;;;;26.72;33.20;94649.69;5071800;28;20451;-77
2021/05/06 05:36:06;;;;;;;3.00;2.47;;;;;;;26.70;32.50;94661.75;5071763;28;20469;-76
2021/05/06 05:38:37;;;;;;;4.43;3.27;;;;;;;26.51;33.09;94661.03;5071665;28;20460;-77
2021/05/06 05:41:15;;;;;;;3.97;3.20;;;;;;;26.20;33.05;94662.97;5071474;28;20488;-76
2021/05/06 05:43:57;;;;;;;4.80;2.57;;;;;;;26.06;32.85;94661.56;5071533;28;20454;-76
2021/05/06 05:47:02;;;;;;;5.50;3.10;;;;;;;26.15;33.47;94670.09;5071583;28;20526;-76
2021/05/06 05:55:06;;;;;;;9.10;3.30;;;;;;;25.02;35.62;94676.19;5018439;28;20927;-76
2021/05/06 05:57:33;;;;;;;5.83;3.50;;;;;;;24.92;36.61;94676.69;5031361;28;20444;-76
2021/05/06 06:00:00;;;;;;;4.57;3.50;;;;;;;25.02;36.01;94677.00;5031184;28;20446;-76
2021/05/06 06:02:26;;;;;;;6.63;3.17;;;;;;;24.94;35.56;94679.97;5031096;28;20485;-76
2021/05/06 06:04:52;;;;;;;6.40;3.10;;;;;;;25.10;36.28;94678.56;5031165;28;20845;-76
2021/05/06 06:07:18;;;;;;;8.93;3.80;;;;;;;24.58;35.47;94674.59;5031253;28;20449;-76
2021/05/06 06:09:45;;;;;;;4.90;3.53;;;;;;;24.37;36.90;94689.22;5031250;28;21009;-76
2021/05/06 06:12:11;;;;;;;7.43;3.60;;;;;;;23.99;37.55;94682.03;5031148;28;20497;-75
2021/05/06 06:14:44;;;;;;;8.03;4.13;;;;;;;23.83;37.46;94685.28;5030919;28;20464;-76
2021/05/06 06:17:12;;;;;;;4.90;3.93;;;;;;;23.47;38.03;94689.38;5031113;28;20445;-76
2021/05/06 06:19:40;;;;;;;12.37;4.30;;;;;;;23.38;38.91;94687.13;5029914;28;20937;-76
2021/05/06 06:22:09;;;;;;;7.83;4.27;;;;;;;23.57;38.41;94688.09;5030826;28;20488;-76
2021/05/06 06:24:35;;;;;;;10.90;4.17;;;;;;;23.76;37.71;94698.72;5030844;28;20852;-76
2021/05/06 06:27:01;;;;;;;9.27;3.77;;;;;;;23.97;37.49;94699.38;5035296;28;21010;-76
2021/05/06 06:29:30;;;;;;;6.50;3.87;;;;;;;24.04;36.50;94709.03;5057597;28;20452;-76
2021/05/06 06:31:57;;;;;;;4.47;3.67;;;;;;;24.08;36.65;94709.44;5093679;28;20455;-75
2021/05/06 06:34:25;;;;;;;7.00;3.97;;;;;;;23.26;37.29;94702.25;5093214;28;20439;-76
2021/05/06 06:36:51;;;;;;;4.83;2.93;;;;;;;23.23;37.94;94708.84;5093123;28;20450;-76
2021/05/06 06:39:17;;;;;;;8.67;2.90;;;;;;;22.76;38.13;94710.00;5093176;28;20972;-76
2021/05/06 06:41:45;;;;;;;3.30;2.30;;;;;;;22.72;38.36;94719.47;5092840;28;20480;-76
2021/05/06 06:44:13;;;;;;;3.73;3.10;;;;;;;22.70;38.11;94717.00;5092935;28;20441;-75
2021/05/06 06:46:39;;;;;;;2.47;2.20;;;;;;;22.77;37.93;94717.81;5092995;28;20528;-75
2021/05/06 06:49:06;;;;;;;4.10;2.50;;;;;;;22.33;39.46;94728.38;5093005;28;20465;-75
2021/05/06 06:51:33;;;;;;;4.30;2.53;;;;;;;22.55;39.04;94716.41;5092721;28;20461;-76
2021/05/06 06:53:59;;;;;;;4.50;2.50;;;;;;;22.74;39.16;94710.19;5092658;28;20445;-76
2021/05/06 06:56:25;;;;;;;5.13;2.63;;;;;;;22.89;39.37;94714.53;5092896;28;20452;-76
2021/05/06 06:58:53;;;;;;;2.13;2.00;;;;;;;23.02;38.32;94717.16;5092901;28;20438;-75
2021/05/06 07:01:20;;;;;;;4.63;2.47;;;;;;;23.04;38.03;94723.13;5092772;28;20541;-75
2021/05/06 07:03:46;;;;;;;5.50;2.27;;;;;;;23.23;37.76;94721.41;5092429;28;20454;-77
2021/05/06 07:06:13;;;;;;;2.60;2.37;;;;;;;23.38;37.44;94727.31;5092525;28;20651;-75
2021/05/06 07:08:43;;;;;;;2.40;2.20;;;;;;;23.46;36.89;94725.22;5092354;28;20788;-75
2021/05/06 07:11:10;;;;;;;3.90;2.70;;;;;;;23.35;36.93;94720.53;5092344;28;20867;-75
2021/05/06 07:13:36;;;;;;;2.20;2.00;;;;;;;23.56;36.27;94714.06;5092549;28;20453;-76
2021/05/06 07:16:04;;;;;;;4.07;2.60;;;;;;;23.56;37.50;94715.94;5092816;28;20441;-75
2021/05/06 07:18:31;;;;;;;4.50;2.27;;;;;;;23.80;36.33;94717.84;5092307;28;20453;-75
2021/05/06 07:20:58;;;;;;;3.60;2.30;;;;;;;23.57;37.89;94715.72;5056512;28;20476;-75
2021/05/06 07:23:26;;;;;;;3.23;2.33;;;;;;;23.55;37.41;94722.28;5092239;28;20442;-75
2021/05/06 07:25:55;;;;;;;3.40;2.50;;;;;;;23.76;37.23;94717.47;5092600;28;20455;-75
2021/05/06 07:28:23;;;;;;;13.17;2.77;;;;;;;23.94;36.69;94722.09;5092356;28;20450;-75
2021/05/06 07:30:51;;;;;;;4.60;2.87;;;;;;;24.16;36.67;94729.78;5056206;28;20938;-75
2021/05/06 07:33:18;;;;;;;4.90;2.77;;;;;;;24.12;36.47;94728.56;5092447;28;20448;-74
2021/05/06 07:35:44;;;;;;;4.03;2.93;;;;;;;23.80;37.10;94731.25;5091989;28;20465;-75
2021/05/06 07:38:12;;;;;;;3.13;2.93;;;;;;;24.07;37.09;94738.09;5092015;28;20580;-74
2021/05/06 07:40:40;;;;;;;5.90;3.50;;;;;;;24.00;37.50;94739.19;5092209;28;20568;-75
2021/05/06 07:43:10;;;;;;;4.70;2.60;;;;;;;23.85;37.46;94736.78;5056573;28;20445;-75
2021/05/06 07:45:36;;;;;;;3.20;2.87;;;;;;;23.81;37.22;94734.75;5091939;28;20452;-76
2021/05/06 07:48:03;;;;;;;3.53;2.40;;;;;;;23.68;36.95;94736.47;5091879;28;20830;-75
2021/05/06 07:50:30;;;;;;;2.60;2.40;;;;;;;23.55;36.59;94727.66;5072802;28;20458;-76
2021/05/06 07:53:05;;;;;;;9.67;3.07;;;;;;;22.85;38.33;94731.00;5092014;28;20845;-76
2021/05/06 07:55:31;;;;;;;3.43;2.40;;;;;;;23.22;38.15;94727.81;5091917;28;20473;-75
2021/05/06 07:57:58;;;;;;;4.60;2.27;;;;;;;23.01;39.06;94732.38;5092076;28;20442;-75
2021/05/06 08:00:26;;;;;;;5.80;2.93;;;;;;;22.95;39.31;94727.88;5091953;28;20445;-75
2021/05/06 08:02:53;;;;;;;3.70;2.87;;;;;;;23.09;39.04;94734.00;5091815;28;20441;-76
2021/05/06 08:05:19;;;;;;;12.40;3.70;;;;;;;23.06;40.09;94724.53;5091892;28;20840;-76
2021/05/06 08:07:46;;;;;;;3.50;2.90;;;;;;;23.41;39.21;94734.91;5056043;28;20442;-76
2021/05/06 08:10:15;;;;;;;8.40;2.60;;;;;;;23.56;38.51;94726.66;5092401;28;20445;-76
2021/05/06 08:12:41;;;;;;;5.00;2.73;;;;;;;23.53;37.74;94735.09;5091922;28;20499;-75
2021/05/06 08:15:09;;;;;;;5.20;2.70;;;;;;;23.46;38.68;94735.13;5091757;28;20453;-76
2021/05/06 08:17:37;;;;;;;2.90;2.70;;;;;;;23.70;38.63;94725.53;5091607;28;20454;-76
2021/05/06 08:20:05;;;;;;;7.70;2.90;;;;;;;23.51;39.33;94734.47;5072873;28;20453;-75
2021/05/06 08:22:31;;;;;;;4.77;2.93;;;;;;;23.66;38.63;94729.69;5091800;28;20905;-75
2021/05/06 08:24:58;;;;;;;3.07;2.87;;;;;;;23.84;39.60;94731.66;5055977;28;20429;-76
2021/05/06 08:27:24;;;;;;;4.33;3.20;;;;;;;24.14;38.63;94730.00;5091683;28;20437;-76
2021/05/06 08:29:51;;;;;;;8.53;2.90;;;;;;;24.36;37.80;94728.63;5055978;28;20443;-75
2021/05/06 08:32:17;;;;;;;6.83;3.20;;;;;;;24.44;38.05;94727.53;5091552;28;20445;-76
2021/05/06 08:34:45;;;;;;;6.70;2.80;;;;;;;24.46;38.58;94738.84;5091562;28;20534;-75
2021/05/06 08:37:11;;;;;;;5.23;3.10;;;;;;;24.32;38.05;94726.59;5072881;28;20443;-76
2021/05/06 08:39:37;;;;;;;4.83;2.80;;;;;;;24.19;38.15;94723.97;5091643;28;20491;-76
2021/05/06 08:42:04;;;;;;;3.97;3.13;;;;;;;24.43;38.19;94733.94;5091320;28;20492;-76
2021/05/06 08:44:31;;;;;;;4.30;3.10;;;;;;;24.50;37.48;94729.31;5095275;28;20439;-76
2021/05/06 08:47:04;;;;;;;6.20;2.93;;;;;;;24.66;37.10;94730.63;5095816;28;20515;-76
2021/05/06 08:49:31;;;;;;;3.40;2.60;;;;;;;24.27;37.29;94729.06;5095574;28;20508;-76
2021/05/06 08:51:59;;;;;;;3.03;2.83;;;;;;;24.31;36.88;94744.56;5095141;28;20441;-75
2021/05/06 08:54:26;;;;;;;7.27;4.13;;;;;;;24.48;37.23;94733.25;5094902;28;20446;-76
2021/05/06 08:56:52;;;;;;;5.00;2.70;;;;;;;24.61;37.03;94735.84;5094966;28;20449;-75
2021/05/06 08:59:19;;;;;;;3.97;2.90;;;;;;;24.57;36.36;94740.81;5095270;28;20650;-76
2021/05/06 09:01:47;;;;;;;12.13;3.33;;;;;;;24.77;36.99;94731.75;5059408;28;20485;-76
2021/05/06 09:04:13;;;;;;;3.90;2.80;;;;;;;24.91;37.42;94735.97;5094680;28;20991;-76
2021/05/06 09:06:52;;;;;;;2.70;2.50;;;;;;;25.06;34.87;94727.56;5095101;28;20450;-76
2021/05/06 09:09:19;;;;;;;8.33;2.97;;;;;;;25.02;34.59;94733.38;5094718;28;20455;-75
2021/05/06 09:11:51;;;;;;;2.53;2.23;;;;;;;24.83;34.15;94725.50;5094708;28;20871;-76
2021/05/06 09:14:17;;;;;;;2.67;2.30;;;;;;;24.72;34.13;94724.38;5094505;28;20938;-75
2021/05/06 09:16:44;;;;;;;7.70;2.50;;;;;;;24.53;35.07;94731.56;5094888;28;20541;-75
2021/05/06 09:19:12;;;;;;;6.20;3.77;;;;;;;24.48;34.79;94725.22;5094889;28;20452;-75
2021/05/06 09:21:42;;;;;;;3.47;2.90;;;;;;;23.93;34.99;94733.84;5094663;28;20536;-75
2021/05/06 09:24:11;;;;;;;4.40;2.90;;;;;;;23.75;35.92;94733.78;5094361;28;20442;-75
2021/05/06 09:26:39;;;;;;;3.33;2.87;;;;;;;23.70;36.90;94721.00;5094430;28;20449;-75
2021/05/06 09:29:08;;;;;;;3.23;2.70;;;;;;;23.75;36.85;94729.22;5094331;28;20453;-75
2021/05/06 09:31:36;;;;;;;6.33;2.90;;;;;;;23.23;36.29;94740.16;5094594;28;20444;-75
2021/05/06 09:34:06;;;;;;;5.37;2.93;;;;;;;23.00;36.70;94740.63;5094394;28;20503;-76
2021/05/06 09:36:33;;;;;;;2.93;2.60;;;;;;;22.83;37.06;94740.25;5094201;28;20451;-76
2021/05/06 09:39:00;;;;;;;8.60;2.97;;;;;;;22.90;36.52;94742.94;5094404;28;20485;-76
2021/05/06 09:41:29;;;;;;;2.80;2.40;;;;;;;23.03;36.88;94743.72;5075299;28;20486;-76
2021/05/06 09:44:08;;;;;;;3.20;2.53;;;;;;;23.11;36.46;94739.97;5094359;28;20536;-76
2021/05/06 09:46:39;;;;;;;3.23;2.87;;;;;;;23.27;37.07;94739.50;5094340;28;20457;-76
2021/05/06 09:49:06;;;;;;;4.33;2.30;;;;;;;23.35;36.49;94735.78;5094076;28;20479;-76
2021/05/06 09:51:36;;;;;;;3.80;2.30;;;;;;;23.61;36.40;94727.66;5094179;28;20452;-76
2021/05/06 09:54:03;;;;;;;3.30;2.80;;;;;;;23.80;35.55;94728.59;5094105;28;20531;-76
2021/05/06 09:56:30;;;;;;;2.80;2.50;;;;;;;23.86;34.83;94730.38;5094379;28;20446;-76
2021/05/06 09:58:58;;;;;;;3.40;2.40;;;;;;;23.79;34.35;94730.44;5094101;28;20446;-77
2021/05/06 10:01:33;;;;;;;2.40;2.20;;;;;;;23.36;34.24;94738.22;5093780;28;20482;-75
2021/05/06 10:04:13;;;;;;;4.07;2.10;;;;;;;23.40;34.36;94730.59;5093776;28;20441;-76
2021/05/06 10:06:39;;;;;;;5.60;2.30;;;;;;;23.58;34.37;94730.75;5094141;28;20442;-76
2021/05/06 10:09:06;;;;;;;4.20;2.20;;;;;;;23.54;33.52;94739.41;5093710;28;20438;-76
2021/05/06 10:11:32;;;;;;;5.13;2.43;;;;;;;23.66;34.14;94724.31;5093645;28;20481;-76
2021/05/06 10:14:00;;;;;;;3.20;2.10;;;;;;;23.52;33.48;94736.94;5057836;28;20941;-76
2021/05/06 10:16:27;;;;;;;12.10;2.10;;;;;;;23.40;34.01;94734.09;5093652;28;20803;-76
2021/05/06 10:18:54;;;;;;;2.60;2.20;;;;;;;23.20;33.83;94722.66;5093787;28;20469;-75
2021/05/06 10:21:21;;;;;;;3.90;2.30;;;;;;;23.16;34.56;94726.81;5093492;28;20481;-76
2021/05/06 10:23:49;;;;;;;2.40;2.20;;;;;;;23.13;34.78;94708.47;5093736;28;20454;-76
2021/05/06 10:26:16;;;;;;;7.40;2.53;;;;;;;23.24;35.78;94731.91;5093363;28;20450;-76
2021/05/06 10:28:45;;;;;;;3.73;2.40;;;;;;;23.31;35.40;94732.69;5093416;28;20442;-76
2021/05/06 10:31:12;;;;;;;2.70;2.17;;;;;;;23.37;34.27;94715.78;5093532;28;20563;-75
2021/05/06 10:33:43;;;;;;;3.50;2.20;;;;;;;23.21;35.44;94724.31;5057484;28;20446;-76
2021/05/06 10:36:11;;;;;;;2.70;2.50;;;;;;;23.27;35.98;94725.31;5093149;28;20499;-76
2021/05/06 10:38:39;;;;;;;2.40;2.20;;;;;;;23.44;36.03;94729.16;5092877;28;20482;-76
2021/05/06 10:41:31;;;;;;;2.77;2.57;;;;;;;23.54;34.36;94720.66;5092976;28;20512;-76
2021/05/06 10:43:59;;;;;;;3.67;2.53;;;;;;;23.36;34.84;94730.19;5074012;28;20545;-76
2021/05/06 10:46:58;;;;;;;4.83;2.70;;;;;;;23.41;35.71;94738.41;5093317;28;20471;-76
2021/05/06 10:49:26;;;;;;;7.07;2.50;;;;;;;23.39;35.67;94736.97;5050433;28;20533;-76
2021/05/06 10:52:07;;;;;;;3.00;2.80;;;;;;;23.59;36.00;94734.25;5050409;28;20445;-76
2021/05/06 10:54:39;;;;;;;3.83;2.20;;;;;;;23.73;36.02;94741.19;5050470;28;20439;-76
2021/05/06 10:57:28;;;;;;;3.93;2.27;;;;;;;23.88;33.67;94739.03;5050188;28;20433;-77
2021/05/06 10:59:55;;;;;;;2.80;2.27;;;;;;;23.96;34.56;94741.44;5050208;28;20489;-76
2021/05/06 11:02:50;;;;;;;7.27;2.87;;;;;;;24.06;36.18;94747.19;5050248;28;20512;-76
2021/05/06 11:05:18;;;;;;;6.30;3.10;;;;;;;23.93;34.41;94733.84;4990168;28;20448;-76
2021/05/06 11:08:27;;;;;;;3.10;2.80;;;;;;;23.76;35.29;94746.94;4991091;28;20502;-76
2021/05/06 11:11:13;;;;;;;6.50;2.87;;;;;;;23.82;35.55;94739.91;4952002;29;20447;-76
2021/05/06 11:14:06;;;;;;;5.50;2.40;;;;;;;23.86;34.46;94738.44;4905057;29;20453;-75
2021/05/06 11:16:32;;;;;;;2.93;2.53;;;;;;;24.01;35.56;94744.31;4895012;29;20456;-76
2021/05/06 11:19:01;;;;;;;2.93;2.40;;;;;;;24.12;34.62;94747.34;4895073;29;20460;-76
2021/05/06 11:21:43;;;;;;;2.97;2.63;;;;;;;24.03;33.31;94739.56;4895213;29;20533;-76
2021/05/06 11:24:17;;;;;;;3.83;2.20;;;;;;;23.97;34.42;94745.78;4900172;29;20462;-76
2021/05/06 11:27:20;;;;;;;2.43;2.20;;;;;;;24.02;34.01;94745.16;4900982;29;20464;-76
2021/05/06 11:29:47;;;;;;;2.37;2.17;;;;;;;23.69;33.56;94745.31;4932644;29;20452;-76
2021/05/06 11:32:22;;;;;;;5.87;2.10;;;;;;;23.49;33.68;94742.72;4932772;29;20442;-75
2021/05/06 11:34:52;;;;;;;2.80;2.23;;;;;;;23.38;34.06;94740.69;4932646;29;20547;-76
2021/05/06 11:37:29;;;;;;;4.70;2.70;;;;;;;23.42;35.45;94729.38;4932500;29;20848;-76
2021/05/06 11:40:05;;;;;;;4.13;2.43;;;;;;;23.32;35.10;94737.03;4932267;29;20835;-75
2021/05/06 11:42:37;;;;;;;3.90;2.50;;;;;;;23.15;35.93;94730.50;4996291;28;21115;-76
2021/05/06 11:45:20;;;;;;;2.47;2.27;;;;;;;23.29;35.82;94729.41;5010035;28;20454;-76
2021/05/06 11:47:47;;;;;;;8.23;2.60;;;;;;;23.20;35.28;94711.94;5040625;28;20460;-76
2021/05/06 11:50:27;;;;;;;6.53;2.40;;;;;;;23.20;35.95;94728.00;5049603;28;20938;-76
2021/05/06 11:52:55;;;;;;;3.37;2.10;;;;;;;23.08;35.82;94727.84;5068328;28;20445;-76
2021/05/06 11:55:33;;;;;;;2.47;2.27;;;;;;;23.10;36.55;94735.66;5092021;28;20457;-75
2021/05/06 11:58:00;;;;;;;12.27;2.60;;;;;;;23.13;35.82;94728.06;5091936;28;20935;-76
2021/05/06 12:00:28;;;;;;;2.53;2.20;;;;;;;23.00;36.59;94724.56;5091795;28;20438;-76
2021/05/06 12:02:56;;;;;;;4.50;2.40;;;;;;;22.83;35.59;94714.31;5091935;28;20484;-75
2021/05/06 12:05:24;;;;;;;2.80;1.97;;;;;;;22.91;36.64;94715.13;5056431;28;20938;-76
2021/05/06 12:08:02;;;;;;;3.80;2.27;;;;;;;23.08;36.42;94718.97;5091857;28;20494;-75
2021/05/06 12:10:29;;;;;;;2.93;2.60;;;;;;;23.31;37.81;94719.31;5092037;28;20438;-76
2021/05/06 12:13:01;;;;;;;2.40;2.27;;;;;;;23.53;35.38;94711.78;5091759;28;20447;-76
2021/05/06 12:15:28;;;;;;;4.27;2.57;;;;;;;23.66;35.76;94710.91;5056141;28;20854;-76
2021/05/06 12:18:19;;;;;;;5.87;3.20;;;;;;;23.55;35.07;94716.94;5094800;28;20453;-77
2021/05/06 12:20:50;;;;;;;3.23;2.40;;;;;;;23.50;35.80;94706.88;5095906;28;20448;-76
2021/05/06 12:23:16;;;;;;;5.77;2.57;;;;;;;23.51;35.23;94707.69;5095627;28;20489;-75
2021/05/06 12:25:43;;;;;;;4.37;2.40;;;;;;;23.58;35.29;94698.59;5096187;28;21182;-75
2021/05/06 12:28:09;;;;;;;7.03;3.03;;;;;;;23.48;34.92;94701.72;5095852;28;20819;-76
2021/05/06 12:30:36;;;;;;;2.50;2.30;;;;;;;23.44;34.88;94703.19;5096083;28;20447;-76
2021/05/06 12:33:02;;;;;;;4.43;2.63;;;;;;;23.52;35.47;94698.63;5076576;28;20450;-76
2021/05/06 12:35:28;;;;;;;4.33;3.57;;;;;;;23.59;36.15;94696.75;5095594;28;20952;-75
2021/05/06 12:37:56;;;;;;;3.20;2.53;;;;;;;23.55;34.69;94695.50;5095255;28;20443;-76
2021/05/06 12:40:27;;;;;;;4.10;2.30;;;;;;;23.44;35.37;94695.16;5095688;28;20847;-76
2021/05/06 12:42:53;;;;;;;2.40;2.20;;;;;;;23.45;35.57;94687.94;5095172;28;20492;-75
2021/05/06 12:45:31;;;;;;;8.73;2.20;;;;;;;23.42;35.37;94696.41;5095556;28;20781;-75
2021/05/06 12:47:57;;;;;;;5.73;2.33;;;;;;;23.51;35.73;94688.94;5095277;28;20447;-74
2021/05/06 12:50:26;;;;;;;2.13;1.93;;;;;;;23.58;34.54;94695.09;5095224;28;20507;-74
2021/05/06 12:52:53;;;;;;;2.87;2.50;;;;;;;23.58;34.56;94690.56;5095249;28;20537;-75
2021/05/06 12:55:23;;;;;;;2.70;2.13;;;;;;;23.63;34.30;94679.19;5095376;28;20765;-74
2021/05/06 12:58:12;;;;;;;2.30;2.10;;;;;;;23.76;34.09;94687.19;5095228;28;20455;-74
2021/05/06 13:00:39;;;;;;;2.93;2.63;;;;;;;23.82;34.05;94688.97;5095083;28;20496;-75
2021/05/06 13:03:08;;;;;;;3.10;2.20;;;;;;;23.79;33.98;94697.47;5095316;28;20484;-74
2021/05/06 13:05:36;;;;;;;3.60;2.10;;;;;;;23.69;34.46;94694.41;5095113;28;20445;-75
2021/05/06 13:08:03;;;;;;;2.50;2.10;;;;;;;23.70;35.03;94693.38;5094920;28;20520;-75
2021/05/06 13:10:32;;;;;;;6.90;2.53;;;;;;;23.62;33.92;94683.75;5094950;28;20444;-75
2021/05/06 13:12:59;;;;;;;4.03;2.00;;;;;;;23.68;34.58;94692.78;5075959;28;20977;-75
2021/05/06 13:15:26;;;;;;;3.07;2.40;;;;;;;23.63;34.57;94697.97;5094824;28;20449;-75
2021/05/06 13:17:52;;;;;;;2.10;2.00;;;;;;;23.52;34.74;94690.59;5058874;28;20461;-75
2021/05/06 13:20:20;;;;;;;3.30;2.00;;;;;;;23.31;34.00;94684.50;5094535;28;20522;-75
2021/05/06 13:23:04;;;;;;;4.73;2.43;;;;;;;23.20;35.02;94687.03;5094664;28;20917;-74
2021/05/06 13:25:46;;;;;;;2.80;2.20;;;;;;;23.24;35.44;94689.06;5094544;28;20447;-75
2021/05/06 13:28:15;;;;;;;4.13;2.10;;;;;;;23.38;35.11;94685.28;5094055;28;20445;-75
2021/05/06 13:30:42;;;;;;;4.83;2.33;;;;;;;23.38;34.62;94674.56;5094600;28;20438;-75
2021/05/06 13:33:14;;;;;;;3.97;3.67;;;;;;;23.51;35.94;94678.22;5076104;28;20463;-74
2021/05/06 13:35:41;;;;;;;3.57;2.23;;;;;;;23.63;33.86;94671.16;5094427;28;20447;-75
2021/05/06 13:38:07;;;;;;;4.70;2.23;;;;;;;23.74;33.83;94678.53;5094321;28;20458;-75
2021/05/06 13:40:34;;;;;;;2.23;2.03;;;;;;;23.78;33.56;94659.13;5094602;28;20514;-75
2021/05/06 13:43:01;;;;;;;4.33;2.53;;;;;;;23.85;33.61;94669.78;5094096;28;20485;-75
2021/05/06 13:45:27;;;;;;;2.73;2.13;;;;;;;23.79;33.88;94659.94;5094382;28;20452;-75
2021/05/06 13:47:53;;;;;;;9.27;2.57;;;;;;;23.85;34.23;94659.06;5094442;28;20443;-75
2021/05/06 13:50:20;;;;;;;10.60;2.57;;;;;;;23.85;33.40;94659.06;5094197;28;20483;-75
2021/05/06 13:52:46;;;;;;;5.40;2.70;;;;;;;23.84;32.61;94654.75;5093976;28;20447;-75
2021/05/06 13:55:14;;;;;;;5.50;2.07;;;;;;;23.87;33.15;94646.28;5094105;28;20447;-76
2021/05/06 13:57:42;;;;;;;6.20;2.83;;;;;;;23.86;33.58;94651.84;5094076;28;20437;-75
2021/05/06 14:00:11;;;;;;;2.20;2.00;;;;;;;23.81;33.17;94651.69;5094025;28;20471;-75
2021/05/06 14:02:38;;;;;;;4.03;1.90;;;;;;;23.79;32.50;94649.22;5093934;28;20852;-75
2021/05/06 14:05:05;;;;;;;2.37;2.17;;;;;;;23.75;33.16;94650.69;5093884;28;20445;-75
2021/05/06 14:07:31;;;;;;;3.00;2.10;;;;;;;23.66;32.81;94660.03;5074916;28;20466;-75
2021/05/06 14:09:58;;;;;;;2.10;1.90;;;;;;;23.64;32.95;94651.38;5093799;28;20815;-75
2021/05/06 14:12:24;;;;;;;2.07;1.77;;;;;;;23.68;33.14;94652.59;5041359;28;20527;-75
2021/05/06 14:14:50;;;;;;;4.33;2.30;;;;;;;23.77;32.88;94649.44;5093766;28;20458;-75